Aviation Digital Data Service (ADDS)

Output produced by METARs form (0328 UTC 30 May 2017)
found at http://www.aviationweather.gov/adds/metars/
 
RJSK 300300Z 24006KT 180V310 7000 FEW015 SCT025 22/15 Q1009
TAF RJSK 292308Z 3000/3106 26010KT 9999 FEW010 BKN015 
     TEMPO 3000/3002 FEW005 BKN008 BKN015 
     BECMG 3009/3011 14004KT 
     TEMPO 3015/3100 3000 BR FEW003 BKN005 BKN015 
     BECMG 3021/3100 28008KT
       
RJKA 300300Z 06006KT 9999 FEW020 SCT030 BKN/// 26/20 Q1012
RJSA 300300Z 20011KT 9999 FEW050 BKN100 22/12 Q1007
TAF RJSA 292307Z 3000/3106 24013KT 9999 FEW020
       
RJEC 300300Z VRB04KT 9999 FEW030 BKN/// 23/10 Q1004
TAF RJEC 292308Z 3000/3106 18007KT 9999 FEW040 
     BECMG 3001/3003 26011KT 
     BECMG 3010/3012 18011KT 
     BECMG 3100/3103 29005KT
       
RJFF 300300Z 34009KT CAVOK 29/12 Q1010 RMK A2983
TAF RJFF 292312Z 3000/3106 16005KT 9999 FEW030 
     BECMG 3001/3003 32010KT 
     BECMG 3010/3012 16006KT 
     BECMG 3100/3103 32008KT
       
RJSF 300300Z VRB03KT 9999 FEW040 SCT/// 26/14 Q1010
TAF RJSF 292310Z 3000/3106 36010KT 9999 FEW030 SCT040 
     BECMG 3009/3011 14005KT 
     BECMG 3021/3100 36005KT 
     BECMG 3103/3106 14008KT
       
ROTM 300258Z 10009KT 9999 SCT015 BKN030 26/20 A2988 RMK SLP102 STNPR29580 T02560200 58003
TAF ROTM 3003/3103 09010KT 9999 VCSH SCT015 BKN030 QNH2979INS 
     BECMG 3014/3015 VRB06KT 9999 BKN020 QNH2973INS 
     BECMG 3100/3102 6000 SHRA BKN010 QNH2971INS T26/3004Z T22/3021Z
       
RJCH 300300Z 23012KT 9999 FEW004 BKN/// 17/13 Q1006
TAF RJCH 292310Z 3000/3106 12005KT 9999 FEW008 SCT030 
     BECMG 3000/3002 23010KT 
     TEMPO 3012/3015 3000 -SHRA BR FEW005 BKN008 
     BECMG 3012/3015 12003KT 
     TEMPO 3015/3100 1500 -SHRA BR FEW003 BKN005 
     BECMG 3021/3100 22015KT
       
RJSI 300300Z 17005KT 100V260 9999 SCT045 BKN/// 24/15 Q1008
RJOA 300300Z 17004KT 120V230 CAVOK 27/15 Q1012
TAF RJOA 292305Z 3000/3106 20006KT 9999 FEW030
       
RJAH 300300Z VRB04KT 9999 FEW020 BKN250 27/17 Q1009
TAF RJAH 292305Z 3000/3106 20008KT 9999 FEW030 
     BECMG 3012/3015 FEW005 BKN008 
     TEMPO 3018/3021 4000 BR FEW003 BKN005 
     BECMG 3100/3103 FEW015 BKN030
       
ROIG 300300Z 08010KT 9999 SCT012 28/25 Q1011
TAF ROIG 292308Z 3000/3106 07010KT 9999 FEW015 BKN030 
     TEMPO 3009/3015 4000 SHRA FEW008 BKN015 FEW020CB 
     BECMG 3015/3018 21010KT 
     TEMPO 3015/3021 FEW005 BKN008 
     TEMPO 3100/3106 2000 +TSRA FEW006 BKN010 SCT015CB
       
RJOI 300255Z 16005KT 9999 BKN230 24/17 A2986 RMK SLP111 T02390167 57017
TAF RJOI 3003/3103 VRB06KT 9999 FEW030 BKN230 QNH2976INS 
     FM301500 VRB06KT 9999 SCT030 BKN150 QNH2970INS 
     FM310000 VRB06KT 9999 SCT030 BKN120 OVC180 621509 QNH2967INS T29/3005Z T19/3019Z
       
RJOW 300300Z 34005KT 290V030 CAVOK 25/16 Q1010
RJAW 300300Z 18006KT 150V210 9999 FEW005 SCT010 BKN120 27/24 Q1012 RMK 2ST005 3CU010 6AC120 A2991
RJOC 300300Z 25016KT CAVOK 28/13 Q1010
TAF RJOC 292305Z 3000/3106 21005KT CAVOK 
     BECMG 3000/3002 25015KT 
     BECMG 3009/3011 17004KT 
     BECMG 3100/3103 25010KT
       
RODN 300317Z AUTO 07009KT 10SM SCT019 OVC037 27/27 A2986 RMK AO2 $
TAF AMD RODN 300020Z 3000/3106 05008KT 9999 BKN015 OVC040 QNH2981INS 
     TEMPO 3000/3006 BKN020 
     BECMG 3012/3013 VRB06KT 9999 VCSH BKN015 OVC020 QNH2982INS 
     BECMG 3101/3102 VRB06KT 8000 -SHRA SCT015 BKN020 OVC050 QNH2978INS TX26/3003Z TN21/3020Z
       
RJFK 300300Z 15005KT 100V200 CAVOK 28/18 Q1011 RMK A2987
TAF RJFK 292305Z 3000/3106 19008KT 9999 FEW040 
     BECMG 3012/3015 31005KT 
     BECMG 3021/3100 18005KT
       
RJBB 300300Z 30003KT CAVOK 26/16 Q1011 NOSIG
TAF RJBB 292305Z 3000/3106 24006KT 9999 FEW030
       
RJFR 300300Z 10003KT 010V170 CAVOK 22/18 Q1011
TAF RJFR 292310Z 3000/3106 05005KT 9999 FEW030 
     BECMG 3006/3008 32010KT 
     BECMG 3009/3011 07003KT
       
RJOK 300300Z 19007KT 140V210 CAVOK 24/18 Q1011
TAF RJOK 292309Z 3000/3106 36004KT 9999 FEW020 
     BECMG 3000/3002 18007KT 
     BECMG 3010/3012 35005KT 
     BECMG 3100/3103 18007KT
       
RJNK 300300Z 27011KT 9999 BKN300 29/13 Q1009
TAF RJNK 292308Z 3000/3106 28012KT 9999 FEW030 
     BECMG 3010/3012 20004KT 
     BECMG 3100/3103 33006KT
       
RJFT 300300Z 22004KT 170V290 CAVOK 27/14 Q1011
TAF RJFT 292308Z 3000/3106 22007KT 9999 FEW045 
     BECMG 3010/3012 06003KT 
     BECMG 3021/3100 23006KT
       
RJCK 300300Z 19013KT 9999 FEW040 BKN/// 21/11 Q1003
TAF RJCK 292309Z 3000/3106 18011KT 9999 FEW040
       
RJAF 300300Z 33003KT 260V010 9999 FEW070 SCT/// 26/14 Q1011
RJOM 300300Z 22006KT CAVOK 22/16 Q1011
TAF RJOM 292305Z 3000/3106 32007KT 9999 FEW030 
     BECMG 3010/3012 12004KT 
     BECMG 3021/3100 34010KT 
     BECMG 3103/3106 23010KT
       
RJCM 300300Z 07008KT 040V100 9999 FEW050 BKN/// 24/11 Q1003
TAF RJCM 292312Z 3000/3106 19005KT 9999 FEW010 BKN025 
     BECMG 3001/3003 04010KT 
     BECMG 3010/3012 20007KT 
     BECMG 3100/3103 02005KT 
     TEMPO 3103/3106 4000 SHRA BR FEW010 BKN025 FEW025CB
       
RJOH 300300Z 25013KT 9999 BKN270 31/11 Q1009
TAF RJOH 292305Z 3000/3106 32004KT CAVOK 
     BECMG 3003/3005 26010KT 
     BECMG 3010/3012 18004KT 
     BECMG 3103/3106 06005KT
       
ROMY 300300Z 08012KT 9999 FEW012 SCT037 BKN/// 27/23 Q1011
RJFM 300300Z 12007KT 9999 FEW040 BKN/// 25/19 Q1010
TAF RJFM 292315Z 3000/3106 13010KT 9999 FEW030 
     BECMG 3010/3012 24003KT 
     BECMG 3100/3103 14012KT
       
RJEB 300300Z 07005KT 030V110 9999 FEW040 20/11 Q1003
RJFU 300300Z 33005KT 290V360 CAVOK 27/15 Q1011
TAF RJFU 292306Z 3000/3106 16003KT 9999 FEW040 
     BECMG 3001/3003 33007KT 
     BECMG 3009/3011 14007KT
       
ROAH 300300Z 07007KT 040V120 9999 SCT020 BKN040 27/22 Q1010 RMK 3CU020 6SC040 A2984
TAF ROAH 292307Z 3000/3106 06008KT 9999 FEW015 BKN030 
     BECMG 3002/3004 13008KT 
     TEMPO 3018/3021 FEW005 BKN008 
     TEMPO 3021/3100 4000 SHRA
       
RJCN 300300Z 06007KT 020V110 9999 FEW030 SCT/// 23/13 Q1003
RJBD 300300Z 20006KT 160V250 CAVOK 25/19 Q1011
RJCC 300300Z 16016KT 9999 FEW030 BKN/// 22/13 Q1005
TAF RJCC 292305Z 3000/3106 17013KT 9999 FEW030
       
RJAA 300300Z 21006KT 150V240 CAVOK 28/17 Q1009 NOSIG RMK A2980
TAF RJAA 292306Z 3000/3106 22005KT 9999 FEW030 
     TEMPO 3015/3021 FEW005 BKN008
       
RJSN 300300Z 21011G21KT 180V260 CAVOK 27/13 Q1008
TAF RJSN 292308Z 3000/3106 26010KT 9999 FEW030 
     BECMG 3010/3012 18005KT 
     BECMG 3100/3103 33008KT
       
RJCB 300300Z VRB03KT 9999 FEW050 BKN/// 24/12 Q1003
TAF RJCB 292306Z 3000/3106 03005KT 9999 FEW050 
     BECMG 3000/3002 16005KT 
     BECMG 3003/3005 30006KT 
     BECMG 3012/3015 17003KT
       
RJSR 300300Z 25010KT 200V280 9999 FEW020 BKN/// 22/16 Q1008
RJFO 300300Z 09005KT CAVOK 22/19 Q1011
TAF RJFO 292307Z 3000/3106 11005KT CAVOK 
     BECMG 3018/3021 28003KT 
     BECMG 3103/3106 11006KT
       
RJOB 300300Z VRB03KT CAVOK 28/16 Q1011
TAF RJOB 292307Z 3000/3106 18005KT CAVOK 
     BECMG 3008/3010 06004KT 
     BECMG 3100/3103 17005KT
       
RJOO 300300Z VRB05KT CAVOK 28/15 Q1010 RMK A2984
TAF RJOO 292306Z 3000/3106 22006KT 9999 FEW030 
     BECMG 3009/3011 32005KT 
     BECMG 3100/3103 22009KT
       
RJTO 300300Z 20015KT 9999 FEW012 25/18 Q1009
RJFS 300300Z 17006KT CAVOK 24/18 Q1011
TAF RJFS 292307Z 3000/3106 17006KT 9999 FEW030 
     BECMG 3004/3006 19010KT 
     BECMG 3008/3010 17008KT 
     BECMG 3012/3015 29004KT 
     BECMG 3018/3021 15007KT
       
RJSS 300300Z 12009KT 9999 FEW040 BKN/// 22/15 Q1008
TAF RJSS 292305Z 3000/3106 16013KT 9999 FEW030 
     BECMG 3012/3015 26004KT 
     BECMG 3021/3100 12008KT
       
RORS 300300Z 06010KT 9999 SCT016 SCT038 BKN/// 28/23 Q1011
RJNY 292340Z VRB02KT 9999 FEW015 SCT025 22/17 Q1011 RMK 2CU015 4CU025 A2988
RJSY 300300Z 26009KT 230V290 9999 FEW050 SCT/// 22/15 Q1009
RJBT 300300Z 35004KT 280V060 9999 FEW040 BKN/// 30/14 Q1010
RJOT 300300Z 34003KT 290V080 CAVOK 30/18 Q1011
TAF RJOT 292306Z 3000/3106 33005KT CAVOK 
     BECMG 3006/3008 15006KT
       
RJFG 300300Z 27006KT 200V310 9999 FEW030 24/17 Q1012
RJTT 300300Z 17013KT 9999 FEW030 BKN/// 26/17 Q1009 NOSIG
TAF RJTT 292305Z 3000/3106 16006KT 9999 FEW030 
     BECMG 3001/3003 17016KT 
     BECMG 3018/3021 20006KT 
     BECMG 3100/3103 18020KT
       
RJOR 300300Z 02005KT 9999 FEW045 BKN/// 23/14 Q1009
RJNT 300300Z VRB02KT CAVOK 31/15 Q1008
TAF RJNT 292306Z 3000/3106 24004KT 9999 FEW030 
     BECMG 3001/3003 30008KT 
     BECMG 3009/3011 20004KT 
     BECMG 3021/3100 36005KT 
     TEMPO 3103/3106 3000 TSRA BR FEW005 BKN008 FEW015CB
       
RJDT 300300Z 35005KT 310V050 CAVOK 27/15 Q1010
RJCW 300300Z 21017KT 9999 FEW010 SCT015 19/13 Q1003
RJSC 300300Z VRB02KT 9999 FEW070 BKN/// 26/13 Q1008
RJDC 300300Z 09007KT 5000 BR FEW003 BKN/// 22/19 Q1011
RJOY 300300Z 28006KT 230V320 CAVOK 29/14 Q1010
RJTY 300258Z AUTO 16009KT 10SM FEW200 28/16 A2981 RMK AO2 SLP092 T02770156 57017
TAF RJTY 2921/3103 VRB06KT 9999 SKC QNH2984INS 
     BECMG 3003/3005 18008KT 9999 FEW060 QNH2982INS TX27/3006Z TN17/2921Z
       
ROYN 300300Z AUTO 11010KT 9999 FEW019 SCT029 BKN180 28/24 Q1010
RORY 300300Z AUTO 07010KT 040V100 9999 BKN010 OVC029 25/22 Q1011